Time,TemperatureF,DewpointF,PressureIn,WindDirection,WindDirectionDegrees,WindSpeedMPH,WindSpeedGustMPH,Humidity,HourlyPrecipIn,Conditions,Clouds,dailyrainin,SoftwareType,DateUTC
2013-01-04 00:02:00,28.2,21.3,30.12,West,260,5.6,8.3,75,0.00,,---,0.00,VWS V14.01,2013-01-04 05:02:00,
2013-01-04 00:03:00,28.2,21.3,30.12,SW,215,3.6,9.3,75,0.00,,---,0.00,VWS V14.01,2013-01-04 05:03:00,
2013-01-04 00:04:00,28.2,21.3,30.12,West,260,6.0,6.0,75,0.00,,---,0.00,VWS V14.01,2013-01-04 05:04:00,
2013-01-04 00:09:00,28.2,21.3,30.12,West,260,9.3,15.2,75,0.00,,---,0.00,VWS V14.01,2013-01-04 05:09:00,
2013-01-04 00:11:00,28.2,21.0,30.12,West,260,9.3,9.3,74,0.00,,---,0.00,VWS V14.01,2013-01-04 05:11:00,
2013-01-04 00:16:00,28.2,20.6,30.12,WSW,238,12.6,12.6,73,0.00,,---,0.00,VWS V14.01,2013-01-04 05:16:00,
2013-01-04 00:21:00,28.2,20.6,30.12,West,260,8.3,8.3,73,0.00,,---,0.00,VWS V14.01,2013-01-04 05:21:00,
2013-01-04 00:26:00,28.0,20.5,30.12,West,260,9.3,9.3,73,0.00,,---,0.00,VWS V14.01,2013-01-04 05:26:00,
2013-01-04 00:31:00,28.0,20.5,30.12,SW,215,14.2,14.2,73,0.00,,---,0.00,VWS V14.01,2013-01-04 05:31:00,
2013-01-04 00:36:00,28.0,20.1,30.12,West,260,10.6,10.6,72,0.00,,---,0.00,VWS V14.01,2013-01-04 05:36:00,
2013-01-04 00:41:00,27.8,20.0,30.12,West,260,8.3,9.3,72,0.00,,---,0.00,VWS V14.01,2013-01-04 05:41:00,
2013-01-04 00:46:00,27.8,20.0,30.12,West,260,11.3,11.9,72,0.00,,---,0.00,VWS V14.01,2013-01-04 05:46:00,
2013-01-04 00:51:00,27.6,19.8,30.12,West,260,1.7,8.6,72,0.00,,---,0.00,VWS V14.01,2013-01-04 05:51:00,
2013-01-04 00:56:00,27.6,19.8,30.12,West,260,15.2,15.2,72,0.00,,---,0.00,VWS V14.01,2013-01-04 05:56:00,
2013-01-04 01:01:00,27.4,19.9,30.12,WSW,238,5.0,8.3,73,0.00,,---,0.00,VWS V14.01,2013-01-04 06:01:00,
2013-01-04 01:06:00,27.4,19.9,30.12,West,260,15.9,15.9,73,0.00,,---,0.00,VWS V14.01,2013-01-04 06:06:00,
2013-01-04 01:11:00,27.4,19.9,30.12,West,260,5.3,8.6,73,0.00,,---,0.00,VWS V14.01,2013-01-04 06:11:00,
2013-01-04 01:16:00,27.4,19.9,30.12,West,260,8.9,8.9,73,0.00,,---,0.00,VWS V14.01,2013-01-04 06:16:00,
2013-01-04 01:21:00,27.4,19.9,30.12,NW,305,10.9,14.9,73,0.00,,---,0.00,VWS V14.01,2013-01-04 06:21:00,
2013-01-04 01:26:00,27.4,19.9,30.12,WSW,238,5.3,9.3,73,0.00,,---,0.00,VWS V14.01,2013-01-04 06:26:00,
2013-01-04 01:31:00,27.4,20.3,30.12,West,260,7.3,12.9,74,0.00,,---,0.00,VWS V14.01,2013-01-04 06:31:00,
2013-01-04 01:36:00,27.4,20.3,30.12,West,260,8.9,8.9,74,0.00,,---,0.00,VWS V14.01,2013-01-04 06:36:00,
2013-01-04 01:41:00,27.4,20.3,30.12,West,260,7.0,9.3,74,0.00,,---,0.00,VWS V14.01,2013-01-04 06:41:00,
2013-01-04 01:46:00,27.3,20.1,30.12,SW,215,7.3,12.9,74,0.00,,---,0.00,VWS V14.01,2013-01-04 06:46:00,
2013-01-04 01:51:00,27.3,19.8,30.12,WSW,238,4.3,4.3,73,0.00,,---,0.00,VWS V14.01,2013-01-04 06:51:00,
2013-01-04 01:57:00,27.3,19.8,30.12,West,260,14.9,14.9,73,0.00,,---,0.00,VWS V14.01,2013-01-04 06:57:00,
2013-01-04 02:02:00,27.3,19.4,30.09,WSW,238,8.6,8.6,72,0.00,,---,0.00,VWS V14.01,2013-01-04 07:02:00,
2013-01-04 02:07:00,27.3,19.4,30.09,West,260,8.6,9.6,72,0.00,,---,0.00,VWS V14.01,2013-01-04 07:07:00,
2013-01-04 02:12:00,27.3,19.8,30.09,West,260,10.9,10.9,73,0.00,,---,0.00,VWS V14.01,2013-01-04 07:12:00,
2013-01-04 02:17:00,27.3,19.4,30.09,West,260,5.0,7.0,72,0.00,,---,0.00,VWS V14.01,2013-01-04 07:17:00,
2013-01-04 02:22:00,27.3,19.4,30.09,SW,215,10.6,10.6,72,0.00,,---,0.00,VWS V14.01,2013-01-04 07:22:00,
2013-01-04 02:27:00,27.3,19.4,30.09,West,260,5.0,8.3,72,0.00,,---,0.00,VWS V14.01,2013-01-04 07:27:00,
2013-01-04 02:32:00,27.3,19.4,30.12,SW,215,6.0,6.3,72,0.00,,---,0.00,VWS V14.01,2013-01-04 07:32:00,
2013-01-04 02:37:00,27.3,19.4,30.12,West,260,10.9,11.6,72,0.00,,---,0.00,VWS V14.01,2013-01-04 07:37:00,
2013-01-04 02:42:00,27.1,19.3,30.12,WSW,238,7.3,8.6,72,0.00,,---,0.00,VWS V14.01,2013-01-04 07:42:00,
2013-01-04 02:47:00,27.1,19.3,30.12,West,260,6.3,14.6,72,0.00,,---,0.00,VWS V14.01,2013-01-04 07:47:00,
2013-01-04 02:52:00,26.9,19.1,30.12,West,260,8.9,8.9,72,0.00,,---,0.00,VWS V14.01,2013-01-04 07:52:00,
2013-01-04 02:57:00,26.9,19.1,30.12,West,260,13.2,14.6,72,0.00,,---,0.00,VWS V14.01,2013-01-04 07:57:00,
2013-01-04 03:02:00,26.7,18.6,30.12,WSW,238,11.9,14.9,71,0.00,,---,0.00,VWS V14.01,2013-01-04 08:02:00,
2013-01-04 03:07:00,26.7,18.6,30.12,West,260,12.9,14.2,71,0.00,,---,0.00,VWS V14.01,2013-01-04 08:07:00,
2013-01-04 03:12:00,26.7,18.6,30.12,WSW,238,11.9,11.9,71,0.00,,---,0.00,VWS V14.01,2013-01-04 08:12:00,
2013-01-04 03:17:00,26.5,18.4,30.12,West,260,14.9,14.9,71,0.00,,---,0.00,VWS V14.01,2013-01-04 08:17:00,
2013-01-04 03:22:00,26.5,18.1,30.12,West,260,13.6,13.6,70,0.00,,---,0.00,VWS V14.01,2013-01-04 08:22:00,
2013-01-04 03:28:00,26.5,18.4,30.12,WNW,282,11.3,11.3,71,0.00,,---,0.00,VWS V14.01,2013-01-04 08:28:00,
2013-01-04 03:33:00,26.4,18.2,30.12,West,260,8.9,9.6,71,0.00,,---,0.00,VWS V14.01,2013-01-04 08:33:00,
2013-01-04 03:38:00,26.2,17.8,30.12,West,260,7.9,12.6,70,0.00,,---,0.00,VWS V14.01,2013-01-04 08:38:00,
2013-01-04 03:43:00,26.2,17.8,30.12,West,260,7.9,9.9,70,0.00,,---,0.00,VWS V14.01,2013-01-04 08:43:00,
2013-01-04 03:48:00,26.2,17.8,30.12,West,260,9.6,9.6,70,0.00,,---,0.00,VWS V14.01,2013-01-04 08:48:00,
2013-01-04 03:53:00,26.0,17.6,30.12,West,260,14.9,15.2,70,0.00,,---,0.00,VWS V14.01,2013-01-04 08:53:00,
2013-01-04 03:58:00,26.0,17.2,30.12,SW,215,11.3,18.5,69,0.00,,---,0.00,VWS V14.01,2013-01-04 08:58:00,
2013-01-04 04:03:00,25.8,17.1,30.12,West,260,11.6,16.2,69,0.00,,---,0.00,VWS V14.01,2013-01-04 09:03:00,
2013-01-04 04:08:00,25.8,17.4,30.12,West,260,11.3,11.3,70,0.00,,---,0.00,VWS V14.01,2013-01-04 09:08:00,
2013-01-04 04:13:00,25.6,17.2,30.12,West,260,18.5,18.5,70,0.00,,---,0.00,VWS V14.01,2013-01-04 09:13:00,
2013-01-04 04:18:00,25.6,17.2,30.09,West,260,18.9,18.9,70,0.00,,---,0.00,VWS V14.01,2013-01-04 09:18:00,
2013-01-04 04:23:00,25.6,17.2,30.09,NW,305,8.3,11.9,70,0.00,,---,0.00,VWS V14.01,2013-01-04 09:23:00,
2013-01-04 04:28:00,25.5,17.0,30.09,West,260,11.9,12.6,70,0.00,,---,0.00,VWS V14.01,2013-01-04 09:28:00,
2013-01-04 04:33:00,25.5,17.0,30.09,WNW,282,7.9,8.6,70,0.00,,---,0.00,VWS V14.01,2013-01-04 09:33:00,
2013-01-04 04:38:00,25.5,17.4,30.09,West,260,11.9,11.9,71,0.00,,---,0.00,VWS V14.01,2013-01-04 09:38:00,
2013-01-04 04:43:00,25.5,17.4,30.09,West,260,7.3,8.6,71,0.00,,---,0.00,VWS V14.01,2013-01-04 09:43:00,
2013-01-04 04:48:00,25.3,17.2,30.09,West,260,12.9,14.6,71,0.00,,---,0.00,VWS V14.01,2013-01-04 09:48:00,
2013-01-04 04:53:00,25.1,17.0,30.09,West,260,10.6,15.6,71,0.00,,---,0.00,VWS V14.01,2013-01-04 09:53:00,
2013-01-04 04:58:00,25.1,17.0,30.09,West,260,16.2,16.2,71,0.00,,---,0.00,VWS V14.01,2013-01-04 09:58:00,
2013-01-04 05:04:00,25.1,17.0,30.09,West,260,8.9,14.2,71,0.00,,---,0.00,VWS V14.01,2013-01-04 10:04:00,
2013-01-04 05:09:00,24.9,16.9,30.09,SW,215,21.9,21.9,71,0.00,,---,0.00,VWS V14.01,2013-01-04 10:09:00,
2013-01-04 05:14:00,24.7,16.7,30.09,West,260,14.9,14.9,71,0.00,,---,0.00,VWS V14.01,2013-01-04 10:14:00,
2013-01-04 05:19:00,24.7,16.7,30.09,SW,215,12.9,14.2,71,0.00,,---,0.00,VWS V14.01,2013-01-04 10:19:00,
2013-01-04 05:24:00,24.6,16.5,30.09,West,260,8.9,15.9,71,0.00,,---,0.00,VWS V14.01,2013-01-04 10:24:00,
2013-01-04 05:29:00,24.6,16.8,30.09,SW,215,6.0,18.2,72,0.00,,---,0.00,VWS V14.01,2013-01-04 10:29:00,
2013-01-04 05:34:00,24.6,16.8,30.09,SW,215,9.6,9.6,72,0.00,,---,0.00,VWS V14.01,2013-01-04 10:34:00,
2013-01-04 05:39:00,24.6,16.8,30.09,SW,215,7.9,9.3,72,0.00,,---,0.00,VWS V14.01,2013-01-04 10:39:00,
2013-01-04 05:44:00,24.4,16.7,30.09,WSW,238,8.6,11.6,72,0.00,,---,0.00,VWS V14.01,2013-01-04 10:44:00,
2013-01-04 05:49:00,24.4,17.0,30.09,NW,305,8.6,11.3,73,0.00,,---,0.00,VWS V14.01,2013-01-04 10:49:00,
2013-01-04 05:54:00,24.4,17.0,30.09,WSW,238,9.6,9.6,73,0.00,,---,0.00,VWS V14.01,2013-01-04 10:54:00,
2013-01-04 05:59:00,24.2,16.8,30.09,SW,215,6.0,11.3,73,0.00,,---,0.00,VWS V14.01,2013-01-04 10:59:00,
2013-01-04 06:04:00,24.0,16.6,30.09,West,260,9.3,14.2,73,0.00,,---,0.00,VWS V14.01,2013-01-04 11:04:00,
2013-01-04 06:09:00,23.8,16.5,30.09,SW,215,15.2,15.2,73,0.00,,---,0.00,VWS V14.01,2013-01-04 11:09:00,
2013-01-04 06:14:00,23.8,16.5,30.09,West,260,9.9,9.9,73,0.00,,---,0.00,VWS V14.01,2013-01-04 11:14:00,
2013-01-04 06:19:00,23.5,16.1,30.09,West,260,15.2,15.2,73,0.00,,---,0.00,VWS V14.01,2013-01-04 11:19:00,
2013-01-04 06:25:00,23.3,15.9,30.09,SW,215,8.3,12.6,73,0.00,,---,0.00,VWS V14.01,2013-01-04 11:25:00,
2013-01-04 06:30:00,22.9,15.6,30.09,SW,215,6.3,10.9,73,0.00,,---,0.00,VWS V14.01,2013-01-04 11:30:00,
2013-01-04 06:35:00,22.8,15.4,30.09,WSW,238,12.9,12.9,73,0.00,,---,0.00,VWS V14.01,2013-01-04 11:35:00,
2013-01-04 06:40:00,22.6,15.2,30.09,SW,215,14.2,14.2,73,0.00,,---,0.00,VWS V14.01,2013-01-04 11:40:00,
2013-01-04 06:45:00,22.4,15.4,30.09,SW,215,11.3,11.3,74,0.00,,---,0.00,VWS V14.01,2013-01-04 11:45:00,
2013-01-04 06:50:00,22.2,15.2,30.09,WSW,238,10.3,10.3,74,0.00,,---,0.00,VWS V14.01,2013-01-04 11:50:00,
2013-01-04 06:55:00,22.0,15.0,30.09,SW,215,6.3,14.2,74,0.00,,---,0.00,VWS V14.01,2013-01-04 11:55:00,
2013-01-04 07:00:00,22.0,15.0,30.09,SW,215,7.9,10.9,74,0.00,,---,0.00,VWS V14.01,2013-01-04 12:00:00,
2013-01-04 07:05:00,21.9,14.9,30.09,SW,215,10.9,11.9,74,0.00,,---,0.00,VWS V14.01,2013-01-04 12:05:00,
2013-01-04 07:10:00,21.7,14.7,30.09,SW,215,7.9,11.6,74,0.00,,---,0.00,VWS V14.01,2013-01-04 12:10:00,
2013-01-04 07:15:00,21.5,14.5,30.09,SW,215,8.9,8.9,74,0.00,,---,0.00,VWS V14.01,2013-01-04 12:15:00,
2013-01-04 07:20:00,21.3,14.3,30.09,West,260,8.3,12.6,74,0.00,,---,0.00,VWS V14.01,2013-01-04 12:20:00,
2013-01-04 07:25:00,21.3,14.3,30.09,SW,215,8.3,15.2,74,0.00,,---,0.00,VWS V14.01,2013-01-04 12:25:00,
2013-01-04 07:31:00,21.1,14.2,30.09,West,260,8.6,8.6,74,0.00,,---,0.00,VWS V14.01,2013-01-04 12:31:00,
2013-01-04 07:36:00,21.1,14.2,30.09,West,260,8.3,13.2,74,0.00,,---,0.00,VWS V14.01,2013-01-04 12:36:00,
2013-01-04 07:41:00,21.1,14.2,30.09,SW,215,7.3,7.3,74,0.00,,---,0.00,VWS V14.01,2013-01-04 12:41:00,
2013-01-04 07:46:00,21.1,14.2,30.09,SW,215,12.6,12.6,74,0.00,,---,0.00,VWS V14.01,2013-01-04 12:46:00,
2013-01-04 07:51:00,21.0,14.0,30.09,SW,215,10.9,11.3,74,0.00,,---,0.00,VWS V14.01,2013-01-04 12:51:00,
2013-01-04 07:56:00,20.8,13.8,30.09,SW,215,10.9,10.9,74,0.00,,---,0.00,VWS V14.01,2013-01-04 12:56:00,
2013-01-04 08:01:00,20.4,13.5,30.09,SW,215,11.3,11.3,74,0.00,,---,0.00,VWS V14.01,2013-01-04 13:01:00,
2013-01-04 08:06:00,20.2,13.3,30.09,SW,215,11.3,11.3,74,0.00,,---,0.00,VWS V14.01,2013-01-04 13:06:00,
2013-01-04 08:11:00,20.2,13.3,30.09,SW,215,12.6,12.6,74,0.00,,---,0.00,VWS V14.01,2013-01-04 13:11:00,
2013-01-04 08:16:00,20.2,13.3,30.09,South,170,9.6,14.2,74,0.00,,---,0.00,VWS V14.01,2013-01-04 13:16:00,
2013-01-04 08:21:00,20.1,12.8,30.09,SW,215,8.6,8.6,73,0.00,,---,0.00,VWS V14.01,2013-01-04 13:21:00,
2013-01-04 08:26:00,20.1,12.8,30.09,West,260,5.0,5.0,73,0.00,,---,0.00,VWS V14.01,2013-01-04 13:26:00,
2013-01-04 08:31:00,20.1,12.8,30.09,WSW,238,10.6,10.6,73,0.00,,---,0.00,VWS V14.01,2013-01-04 13:31:00,
2013-01-04 08:36:00,20.1,12.8,30.09,SW,215,8.6,8.6,73,0.00,,---,0.00,VWS V14.01,2013-01-04 13:36:00,
2013-01-04 08:41:00,20.1,13.1,30.09,SW,215,8.6,8.6,74,0.00,,---,0.00,VWS V14.01,2013-01-04 13:41:00,
2013-01-04 08:47:00,20.1,13.1,30.09,WSW,238,4.6,4.6,74,0.00,,---,0.00,VWS V14.01,2013-01-04 13:47:00,
2013-01-04 08:52:00,20.1,13.1,30.09,West,260,6.3,6.3,74,0.00,,---,0.00,VWS V14.01,2013-01-04 13:52:00,
2013-01-04 08:57:00,20.2,13.3,30.09,West,260,6.3,6.3,74,0.00,,---,0.00,VWS V14.01,2013-01-04 13:57:00,
2013-01-04 09:02:00,20.2,13.3,30.12,West,260,8.9,8.9,74,0.00,,---,0.00,VWS V14.01,2013-01-04 14:02:00,
2013-01-04 09:07:00,20.2,13.3,30.12,WSW,238,5.3,9.9,74,0.00,,---,0.00,VWS V14.01,2013-01-04 14:07:00,
2013-01-04 09:12:00,20.4,13.5,30.12,West,260,8.9,8.9,74,0.00,,---,0.00,VWS V14.01,2013-01-04 14:12:00,
2013-01-04 09:17:00,20.4,13.8,30.12,West,260,8.9,8.9,75,0.00,,---,0.00,VWS V14.01,2013-01-04 14:17:00,
2013-01-04 09:22:00,20.4,13.8,30.12,West,260,8.9,8.9,75,0.00,,---,0.00,VWS V14.01,2013-01-04 14:22:00,
2013-01-04 09:27:00,20.6,13.9,30.12,West,260,8.9,8.9,75,0.00,,---,0.00,VWS V14.01,2013-01-04 14:27:00,
2013-01-04 09:32:00,20.6,13.9,30.12,West,260,8.9,8.9,75,0.00,,---,0.00,VWS V14.01,2013-01-04 14:32:00,
2013-01-04 09:37:00,20.8,13.8,30.12,West,260,8.9,8.9,74,0.00,,---,0.00,VWS V14.01,2013-01-04 14:37:00,
2013-01-04 09:42:00,20.8,13.8,30.12,West,260,8.9,8.9,74,0.00,,---,0.00,VWS V14.01,2013-01-04 14:42:00,
2013-01-04 09:47:00,21.1,14.2,30.12,SW,215,7.9,7.9,74,0.00,,---,0.00,VWS V14.01,2013-01-04 14:47:00,
2013-01-04 09:52:00,21.1,14.2,30.12,SW,215,7.9,7.9,74,0.00,,---,0.00,VWS V14.01,2013-01-04 14:52:00,
2013-01-04 09:57:00,21.1,14.2,30.12,SW,215,7.9,7.9,74,0.00,,---,0.00,VWS V14.01,2013-01-04 14:57:00,
2013-01-04 10:02:00,21.3,14.3,30.12,SW,215,4.3,4.3,74,0.00,,---,0.00,VWS V14.01,2013-01-04 15:02:00,
2013-01-04 10:07:00,21.7,15.0,30.12,SW,215,4.3,4.3,75,0.00,,---,0.00,VWS V14.01,2013-01-04 15:07:00,
2013-01-04 10:12:00,21.7,15.0,30.12,SW,215,4.3,4.3,75,0.00,,---,0.00,VWS V14.01,2013-01-04 15:12:00,
2013-01-04 10:17:00,21.9,14.9,30.12,SW,215,17.9,17.9,74,0.00,,---,0.00,VWS V14.01,2013-01-04 15:17:00,
2013-01-04 10:23:00,22.0,15.0,30.12,SW,215,17.9,17.9,74,0.00,,---,0.00,VWS V14.01,2013-01-04 15:23:00,
2013-01-04 10:28:00,22.2,15.2,30.12,SW,215,17.9,17.9,74,0.00,,---,0.00,VWS V14.01,2013-01-04 15:28:00,
2013-01-04 10:33:00,22.0,14.7,30.12,SW,215,17.9,17.9,73,0.00,,---,0.00,VWS V14.01,2013-01-04 15:33:00,
2013-01-04 10:38:00,22.2,14.6,30.12,SW,215,17.9,17.9,72,0.00,,---,0.00,VWS V14.01,2013-01-04 15:38:00,
2013-01-04 10:43:00,22.2,14.6,30.12,SW,215,9.6,9.6,72,0.00,,---,0.00,VWS V14.01,2013-01-04 15:43:00,
2013-01-04 10:48:00,22.2,14.6,30.12,SW,215,5.6,5.6,72,0.00,,---,0.00,VWS V14.01,2013-01-04 15:48:00,
2013-01-04 10:53:00,22.4,14.8,30.12,South,170,5.6,5.6,72,0.00,,---,0.00,VWS V14.01,2013-01-04 15:53:00,
2013-01-04 10:58:00,22.4,14.4,30.12,SW,215,14.2,15.2,71,0.00,,---,0.00,VWS V14.01,2013-01-04 15:58:00,
2013-01-04 11:03:00,22.6,14.6,30.09,SW,215,14.9,14.9,71,0.00,,---,0.00,VWS V14.01,2013-01-04 16:03:00,
2013-01-04 11:08:00,22.4,14.4,30.09,West,260,8.9,8.9,71,0.00,,---,0.00,VWS V14.01,2013-01-04 16:08:00,
2013-01-04 11:13:00,22.8,14.8,30.09,SW,215,12.9,12.9,71,0.00,,---,0.00,VWS V14.01,2013-01-04 16:13:00,
2013-01-04 11:18:00,22.9,15.0,30.09,SW,215,12.9,12.9,71,0.00,,---,0.00,VWS V14.01,2013-01-04 16:18:00,
2013-01-04 11:23:00,22.9,15.0,30.09,SW,215,12.9,12.9,71,0.00,,---,0.00,VWS V14.01,2013-01-04 16:23:00,
2013-01-04 11:28:00,23.1,15.1,30.09,SW,215,11.6,11.6,71,0.00,,---,0.00,VWS V14.01,2013-01-04 16:28:00,
2013-01-04 11:34:00,23.5,15.5,30.09,West,260,8.3,13.6,71,0.00,,---,0.00,VWS V14.01,2013-01-04 16:34:00,
2013-01-04 11:39:00,23.3,15.0,30.09,West,260,14.6,19.5,70,0.00,,---,0.00,VWS V14.01,2013-01-04 16:39:00,
2013-01-04 11:44:00,23.5,15.1,30.09,SW,215,14.9,14.9,70,0.00,,---,0.00,VWS V14.01,2013-01-04 16:44:00,
2013-01-04 11:49:00,23.7,15.3,30.09,West,260,10.6,10.6,70,0.00,,---,0.00,VWS V14.01,2013-01-04 16:49:00,
2013-01-04 11:54:00,23.7,15.3,30.09,WSW,238,9.6,9.6,70,0.00,,---,0.00,VWS V14.01,2013-01-04 16:54:00,
2013-01-04 11:59:00,23.7,15.3,30.09,SW,215,11.3,11.3,70,0.00,,---,0.00,VWS V14.01,2013-01-04 16:59:00,
2013-01-04 12:04:00,23.8,15.8,30.09,WSW,238,9.6,9.6,71,0.00,,---,0.00,VWS V14.01,2013-01-04 17:04:00,
2013-01-04 12:09:00,23.8,15.5,30.09,WSW,238,7.3,15.2,70,0.00,,---,0.00,VWS V14.01,2013-01-04 17:09:00,
2013-01-04 12:14:00,23.8,15.5,30.09,SW,215,12.9,12.9,70,0.00,,---,0.00,VWS V14.01,2013-01-04 17:14:00,
2013-01-04 12:19:00,23.8,15.5,30.09,West,260,14.2,14.2,70,0.00,,---,0.00,VWS V14.01,2013-01-04 17:19:00,
2013-01-04 12:24:00,24.0,15.3,30.09,SW,215,21.2,21.9,69,0.00,,---,0.00,VWS V14.01,2013-01-04 17:24:00,
2013-01-04 12:29:00,24.0,15.7,30.09,SW,215,19.5,19.5,70,0.00,,---,0.00,VWS V14.01,2013-01-04 17:29:00,
2013-01-04 12:34:00,24.4,15.7,30.09,WSW,238,11.9,15.9,69,0.00,,---,0.00,VWS V14.01,2013-01-04 17:34:00,
2013-01-04 12:39:00,24.6,15.5,30.09,WSW,238,8.9,15.2,68,0.00,,---,0.00,VWS V14.01,2013-01-04 17:39:00,
2013-01-04 12:44:00,25.3,15.9,30.09,SW,215,7.9,11.6,67,0.00,,---,0.00,VWS V14.01,2013-01-04 17:44:00,
2013-01-04 12:49:00,25.8,16.4,30.09,NW,305,9.3,18.9,67,0.00,,---,0.00,VWS V14.01,2013-01-04 17:49:00,
2013-01-04 12:54:00,26.7,16.9,30.09,South,170,22.5,22.5,66,0.00,,---,0.00,VWS V14.01,2013-01-04 17:54:00,
2013-01-04 12:59:00,26.7,16.2,30.06,West,260,19.2,19.2,64,0.00,,---,0.00,VWS V14.01,2013-01-04 17:59:00,
2013-01-04 13:05:00,27.3,16.3,30.06,West,260,12.9,12.9,63,0.00,,---,0.00,VWS V14.01,2013-01-04 18:05:00,
2013-01-04 13:10:00,27.3,16.0,30.06,SW,215,11.9,11.9,62,0.00,,---,0.00,VWS V14.01,2013-01-04 18:10:00,
2013-01-04 13:15:00,27.8,16.1,30.06,West,260,8.3,21.9,61,0.00,,---,0.00,VWS V14.01,2013-01-04 18:15:00,
2013-01-04 13:20:00,28.5,16.4,30.06,SW,215,13.6,13.9,60,0.00,,---,0.00,VWS V14.01,2013-01-04 18:20:00,
2013-01-04 13:25:00,28.7,15.8,30.06,SW,215,10.9,12.9,58,0.00,,---,0.00,VWS V14.01,2013-01-04 18:25:00,
2013-01-04 13:30:00,28.9,16.0,30.06,NW,305,8.3,8.3,58,0.00,,---,0.00,VWS V14.01,2013-01-04 18:30:00,
2013-01-04 13:35:00,29.2,15.9,30.06,West,260,19.2,19.2,57,0.00,,---,0.00,VWS V14.01,2013-01-04 18:35:00,
2013-01-04 13:40:00,29.6,16.2,30.06,WSW,238,14.2,14.2,57,0.00,,---,0.00,VWS V14.01,2013-01-04 18:40:00,
2013-01-04 13:45:00,30.0,16.2,30.06,West,260,18.5,18.5,56,0.00,,---,0.00,VWS V14.01,2013-01-04 18:45:00,
2013-01-04 13:50:00,30.3,16.5,30.06,SW,215,11.3,12.6,56,0.00,,---,0.00,VWS V14.01,2013-01-04 18:50:00,
2013-01-04 13:55:00,30.1,15.9,30.06,WNW,282,10.9,15.6,55,0.00,,---,0.00,VWS V14.01,2013-01-04 18:55:00,
2013-01-04 14:00:00,30.5,16.3,30.06,SW,215,8.6,15.2,55,0.00,,---,0.00,VWS V14.01,2013-01-04 19:00:00,
2013-01-04 14:05:00,30.1,15.5,30.06,West,260,16.6,16.6,54,0.00,,---,0.00,VWS V14.01,2013-01-04 19:05:00,
2013-01-04 14:10:00,30.1,15.5,30.06,SW,215,8.6,11.9,54,0.00,,---,0.00,VWS V14.01,2013-01-04 19:10:00,
2013-01-04 14:15:00,30.0,14.9,30.06,SW,215,15.9,15.9,53,0.00,,---,0.00,VWS V14.01,2013-01-04 19:15:00,
2013-01-04 14:21:00,30.0,14.9,30.06,WSW,238,12.6,18.5,53,0.00,,---,0.00,VWS V14.01,2013-01-04 19:21:00,
2013-01-04 14:26:00,30.0,14.9,30.06,West,260,7.9,7.9,53,0.00,,---,0.00,VWS V14.01,2013-01-04 19:26:00,
2013-01-04 14:31:00,30.0,14.9,30.06,WSW,238,12.6,12.6,53,0.00,,---,0.00,VWS V14.01,2013-01-04 19:31:00,
2013-01-04 14:36:00,30.0,14.9,30.06,West,260,11.6,11.6,53,0.00,,---,0.00,VWS V14.01,2013-01-04 19:36:00,
2013-01-04 14:41:00,30.1,15.1,30.06,SW,215,11.3,12.6,53,0.00,,---,0.00,VWS V14.01,2013-01-04 19:41:00,
2013-01-04 14:46:00,30.0,14.9,30.06,WSW,238,14.9,14.9,53,0.00,,---,0.00,VWS V14.01,2013-01-04 19:46:00,
2013-01-04 14:51:00,29.8,14.8,30.06,SW,215,11.3,11.3,53,0.00,,---,0.00,VWS V14.01,2013-01-04 19:51:00,
2013-01-04 14:56:00,29.6,14.6,30.06,West,260,11.6,11.9,53,0.00,,---,0.00,VWS V14.01,2013-01-04 19:56:00,
2013-01-04 15:01:00,29.6,14.6,30.06,SW,215,11.3,12.9,53,0.00,,---,0.00,VWS V14.01,2013-01-04 20:01:00,
2013-01-04 15:06:00,29.6,14.6,30.06,SW,215,10.9,11.3,53,0.00,,---,0.00,VWS V14.01,2013-01-04 20:06:00,
2013-01-04 15:11:00,29.8,14.8,30.06,SW,215,5.0,5.0,53,0.00,,---,0.00,VWS V14.01,2013-01-04 20:11:00,
2013-01-04 15:16:00,29.8,14.8,30.06,WSW,238,6.3,9.3,53,0.00,,---,0.00,VWS V14.01,2013-01-04 20:16:00,
2013-01-04 15:21:00,30.0,14.9,30.06,South,170,15.6,15.6,53,0.00,,---,0.00,VWS V14.01,2013-01-04 20:21:00,
2013-01-04 15:26:00,29.8,14.8,30.06,WSW,238,11.9,11.9,53,0.00,,---,0.00,VWS V14.01,2013-01-04 20:26:00,
2013-01-04 15:32:00,30.0,14.9,30.06,West,260,13.9,13.9,53,0.00,,---,0.00,VWS V14.01,2013-01-04 20:32:00,
2013-01-04 15:37:00,29.8,14.8,30.06,West,260,13.9,13.9,53,0.00,,---,0.00,VWS V14.01,2013-01-04 20:37:00,
2013-01-04 15:42:00,29.6,14.6,30.06,SW,215,7.3,7.3,53,0.00,,---,0.00,VWS V14.01,2013-01-04 20:42:00,
2013-01-04 15:47:00,29.6,14.6,30.06,WSW,238,9.3,9.3,53,0.00,,---,0.00,VWS V14.01,2013-01-04 20:47:00,
2013-01-04 15:52:00,29.4,14.4,30.06,SW,215,6.0,9.3,53,0.00,,---,0.00,VWS V14.01,2013-01-04 20:52:00,
2013-01-04 15:57:00,29.4,14.8,30.06,SW,215,6.0,6.0,54,0.00,,---,0.00,VWS V14.01,2013-01-04 20:57:00,
2013-01-04 16:02:00,29.4,14.8,30.06,SW,215,8.3,8.3,54,0.00,,---,0.00,VWS V14.01,2013-01-04 21:02:00,
2013-01-04 16:07:00,29.2,14.7,30.06,NW,305,11.3,11.3,54,0.00,,---,0.00,VWS V14.01,2013-01-04 21:07:00,
2013-01-04 16:12:00,29.4,14.8,30.06,SW,215,8.9,8.9,54,0.00,,---,0.00,VWS V14.01,2013-01-04 21:12:00,
2013-01-04 16:17:00,29.2,14.7,30.06,WSW,238,11.3,11.3,54,0.00,,---,0.00,VWS V14.01,2013-01-04 21:17:00,
2013-01-04 16:22:00,29.2,14.7,30.06,SW,215,6.0,6.0,54,0.00,,---,0.00,VWS V14.01,2013-01-04 21:22:00,
2013-01-04 16:27:00,29.2,14.7,30.06,SW,215,8.9,8.9,54,0.00,,---,0.00,VWS V14.01,2013-01-04 21:27:00,
2013-01-04 16:32:00,29.2,14.7,30.06,West,260,9.3,9.3,54,0.00,,---,0.00,VWS V14.01,2013-01-04 21:32:00,
2013-01-04 16:37:00,29.1,14.5,30.06,West,260,9.3,9.3,54,0.00,,---,0.00,VWS V14.01,2013-01-04 21:37:00,
2013-01-04 16:42:00,29.1,14.5,30.06,West,260,8.9,8.9,54,0.00,,---,0.00,VWS V14.01,2013-01-04 21:42:00,
2013-01-04 16:47:00,28.9,14.8,30.09,SW,215,13.2,13.2,55,0.00,,---,0.00,VWS V14.01,2013-01-04 21:47:00,
2013-01-04 16:52:00,28.9,14.8,30.09,SW,215,8.9,9.3,55,0.00,,---,0.00,VWS V14.01,2013-01-04 21:52:00,
2013-01-04 16:57:00,28.7,14.6,30.09,SW,215,8.3,8.3,55,0.00,,---,0.00,VWS V14.01,2013-01-04 21:57:00,
2013-01-04 17:03:00,28.5,14.4,30.09,SW,215,8.3,8.3,55,0.00,,---,0.00,VWS V14.01,2013-01-04 22:03:00,
2013-01-04 17:08:00,28.3,14.2,30.09,WSW,238,7.9,7.9,55,0.00,,---,0.00,VWS V14.01,2013-01-04 22:08:00,
2013-01-04 17:13:00,28.2,14.1,30.09,West,260,7.3,15.6,55,0.00,,---,0.00,VWS V14.01,2013-01-04 22:13:00,
2013-01-04 17:18:00,28.0,13.9,30.09,SW,215,8.9,8.9,55,0.00,,---,0.00,VWS V14.01,2013-01-04 22:18:00,
2013-01-04 17:23:00,27.8,14.2,30.09,South,170,8.6,8.6,56,0.00,,---,0.00,VWS V14.01,2013-01-04 22:23:00,
2013-01-04 17:28:00,27.8,14.2,30.09,SW,215,8.9,8.9,56,0.00,,---,0.00,VWS V14.01,2013-01-04 22:28:00,
2013-01-04 17:33:00,27.4,14.2,30.09,SW,215,5.3,5.3,57,0.00,,---,0.00,VWS V14.01,2013-01-04 22:33:00,
2013-01-04 17:38:00,27.4,14.2,30.09,SW,215,9.3,9.3,57,0.00,,---,0.00,VWS V14.01,2013-01-04 22:38:00,
2013-01-04 17:43:00,27.3,14.1,30.09,SW,215,9.3,9.3,57,0.00,,---,0.00,VWS V14.01,2013-01-04 22:43:00,
2013-01-04 17:48:00,27.3,14.4,30.09,West,260,10.9,10.9,58,0.00,,---,0.00,VWS V14.01,2013-01-04 22:48:00,
2013-01-04 17:53:00,27.3,14.4,30.09,SW,215,6.3,6.3,58,0.00,,---,0.00,VWS V14.01,2013-01-04 22:53:00,
2013-01-04 17:58:00,27.1,14.3,30.09,SW,215,8.9,8.9,58,0.00,,---,0.00,VWS V14.01,2013-01-04 22:58:00,
2013-01-04 18:03:00,26.9,14.5,30.09,WSW,238,6.3,6.3,59,0.00,,---,0.00,VWS V14.01,2013-01-04 23:03:00,
2013-01-04 18:08:00,26.9,14.5,30.09,SW,215,9.3,9.3,59,0.00,,---,0.00,VWS V14.01,2013-01-04 23:08:00,
2013-01-04 18:13:00,26.7,14.7,30.09,WSW,238,6.3,9.3,60,0.00,,---,0.00,VWS V14.01,2013-01-04 23:13:00,
2013-01-04 18:18:00,26.7,14.7,30.09,SW,215,4.0,8.6,60,0.00,,---,0.00,VWS V14.01,2013-01-04 23:18:00,
2013-01-04 18:23:00,26.7,15.1,30.09,SW,215,7.3,7.3,61,0.00,,---,0.00,VWS V14.01,2013-01-04 23:23:00,
2013-01-04 18:28:00,26.7,15.1,30.09,SW,215,5.6,5.6,61,0.00,,---,0.00,VWS V14.01,2013-01-04 23:28:00,
2013-01-04 18:34:00,26.5,15.3,30.09,SW,215,9.3,10.9,62,0.00,,---,0.00,VWS V14.01,2013-01-04 23:34:00,
2013-01-04 18:39:00,26.7,15.5,30.09,SW,215,9.3,9.3,62,0.00,,---,0.00,VWS V14.01,2013-01-04 23:39:00,
2013-01-04 18:44:00,26.5,15.3,30.09,WSW,238,8.9,8.9,62,0.00,,---,0.00,VWS V14.01,2013-01-04 23:44:00,
2013-01-04 18:49:00,26.5,15.7,30.09,WSW,238,5.0,6.3,63,0.00,,---,0.00,VWS V14.01,2013-01-04 23:49:00,
2013-01-04 18:54:00,26.5,15.7,30.09,South,170,5.3,5.3,63,0.00,,---,0.00,VWS V14.01,2013-01-04 23:54:00,
2013-01-04 18:59:00,26.4,15.9,30.12,WSW,238,6.3,6.3,64,0.00,,---,0.00,VWS V14.01,2013-01-04 23:59:00,
2013-01-04 19:04:00,26.4,15.9,30.12,SW,215,6.0,6.0,64,0.00,,---,0.00,VWS V14.01,2013-01-05 00:04:00,
2013-01-04 19:09:00,26.4,15.9,30.12,South,170,8.3,8.3,64,0.00,,---,0.00,VWS V14.01,2013-01-05 00:09:00,
2013-01-04 19:14:00,26.2,15.7,30.12,SW,215,7.9,7.9,64,0.00,,---,0.00,VWS V14.01,2013-01-05 00:14:00,
2013-01-04 19:19:00,26.2,16.0,30.12,SW,215,12.6,12.6,65,0.00,,---,0.00,VWS V14.01,2013-01-05 00:19:00,
2013-01-04 19:24:00,26.2,16.0,30.12,SW,215,6.0,6.3,65,0.00,,---,0.00,VWS V14.01,2013-01-05 00:24:00,
2013-01-04 19:29:00,26.0,16.2,30.12,SW,215,8.3,8.9,66,0.00,,---,0.00,VWS V14.01,2013-01-05 00:29:00,
2013-01-04 19:34:00,26.0,16.2,30.12,SW,215,9.3,9.3,66,0.00,,---,0.00,VWS V14.01,2013-01-05 00:34:00,
2013-01-04 19:40:00,26.0,16.6,30.12,SW,215,7.3,8.3,67,0.00,,---,0.00,VWS V14.01,2013-01-05 00:40:00,
2013-01-04 19:45:00,25.8,16.4,30.12,WSW,238,5.6,7.9,67,0.00,,---,0.00,VWS V14.01,2013-01-05 00:45:00,
2013-01-04 19:50:00,25.8,16.4,30.12,WSW,238,7.0,7.0,67,0.00,,---,0.00,VWS V14.01,2013-01-05 00:50:00,
2013-01-04 19:55:00,25.8,16.7,30.12,SW,215,8.6,9.6,68,0.00,,---,0.00,VWS V14.01,2013-01-05 00:55:00,
2013-01-04 20:00:00,25.8,16.7,30.12,SW,215,11.3,11.3,68,0.00,,---,0.00,VWS V14.01,2013-01-05 01:00:00,
2013-01-04 20:05:00,25.8,17.1,30.12,SW,215,6.0,8.9,69,0.00,,---,0.00,VWS V14.01,2013-01-05 01:05:00,
2013-01-04 20:10:00,25.6,16.9,30.12,SW,215,7.9,7.9,69,0.00,,---,0.00,VWS V14.01,2013-01-05 01:10:00,
2013-01-04 20:15:00,25.6,17.2,30.12,SW,215,7.3,7.3,70,0.00,,---,0.00,VWS V14.01,2013-01-05 01:15:00,
2013-01-04 20:20:00,25.6,17.2,30.12,SW,215,12.9,12.9,70,0.00,,---,0.00,VWS V14.01,2013-01-05 01:20:00,
2013-01-04 20:26:00,25.6,17.2,30.12,SW,215,5.6,8.3,70,0.00,,---,0.00,VWS V14.01,2013-01-05 01:26:00,
2013-01-04 20:31:00,25.6,17.2,30.12,SW,215,5.0,7.3,70,0.00,,---,0.00,VWS V14.01,2013-01-05 01:31:00,
2013-01-04 20:36:00,25.6,17.6,30.12,SW,215,8.3,9.6,71,0.00,,---,0.00,VWS V14.01,2013-01-05 01:36:00,
2013-01-04 20:41:00,25.6,17.6,30.12,West,260,6.0,8.6,71,0.00,,---,0.00,VWS V14.01,2013-01-05 01:41:00,
2013-01-04 20:46:00,25.6,17.6,30.12,SW,215,10.6,11.3,71,0.00,,---,0.00,VWS V14.01,2013-01-05 01:46:00,
2013-01-04 20:51:00,25.6,17.6,30.12,SW,215,6.3,6.3,71,0.00,,---,0.00,VWS V14.01,2013-01-05 01:51:00,
2013-01-04 20:56:00,25.6,17.6,30.12,West,260,7.0,7.0,71,0.00,,---,0.00,VWS V14.01,2013-01-05 01:56:00,
2013-01-04 21:02:00,25.6,17.6,30.12,SW,215,5.6,8.3,71,0.00,,---,0.00,VWS V14.01,2013-01-05 02:02:00,
2013-01-04 21:07:00,25.5,17.4,30.12,West,260,6.3,7.3,71,0.00,,---,0.00,VWS V14.01,2013-01-05 02:07:00,
2013-01-04 21:12:00,25.6,17.6,30.12,SW,215,4.6,5.6,71,0.00,,---,0.00,VWS V14.01,2013-01-05 02:12:00,
2013-01-04 21:17:00,25.5,17.7,30.12,West,260,5.6,5.6,72,0.00,,---,0.00,VWS V14.01,2013-01-05 02:17:00,
2013-01-04 21:22:00,25.6,17.9,30.12,West,260,3.6,3.6,72,0.00,,---,0.00,VWS V14.01,2013-01-05 02:22:00,
2013-01-04 21:27:00,25.5,17.7,30.12,WSW,238,5.3,5.3,72,0.00,,---,0.00,VWS V14.01,2013-01-05 02:27:00,
2013-01-04 21:32:00,25.5,17.7,30.12,SW,215,6.3,6.3,72,0.00,,---,0.00,VWS V14.01,2013-01-05 02:32:00,
2013-01-04 21:37:00,25.5,17.7,30.12,WSW,238,9.6,9.6,72,0.00,,---,0.00,VWS V14.01,2013-01-05 02:37:00,
2013-01-04 21:42:00,25.5,17.7,30.12,SW,215,8.3,8.3,72,0.00,,---,0.00,VWS V14.01,2013-01-05 02:42:00,
2013-01-04 21:47:00,25.5,17.7,30.15,NW,305,4.0,5.3,72,0.00,,---,0.00,VWS V14.01,2013-01-05 02:47:00,
2013-01-04 21:52:00,25.5,18.0,30.15,West,260,5.3,5.3,73,0.00,,---,0.00,VWS V14.01,2013-01-05 02:52:00,
2013-01-04 21:57:00,25.3,17.9,30.15,SW,215,5.0,6.0,73,0.00,,---,0.00,VWS V14.01,2013-01-05 02:57:00,
2013-01-04 22:02:00,25.3,17.9,30.15,SW,215,6.3,6.3,73,0.00,,---,0.00,VWS V14.01,2013-01-05 03:02:00,
2013-01-04 22:07:00,25.3,17.9,30.15,SW,215,7.0,7.9,73,0.00,,---,0.00,VWS V14.01,2013-01-05 03:07:00,
2013-01-04 22:12:00,25.3,17.9,30.15,SW,215,6.0,6.0,73,0.00,,---,0.00,VWS V14.01,2013-01-05 03:12:00,
2013-01-04 22:17:00,25.1,17.7,30.15,SW,215,4.0,7.0,73,0.00,,---,0.00,VWS V14.01,2013-01-05 03:17:00,
2013-01-04 22:22:00,24.9,17.5,30.15,SW,215,5.0,6.3,73,0.00,,---,0.00,VWS V14.01,2013-01-05 03:22:00,
2013-01-04 22:27:00,24.9,17.5,30.15,West,260,5.3,7.9,73,0.00,,---,0.00,VWS V14.01,2013-01-05 03:27:00,
2013-01-04 22:32:00,24.9,17.5,30.15,WSW,238,5.0,5.0,73,0.00,,---,0.00,VWS V14.01,2013-01-05 03:32:00,
2013-01-04 22:37:00,24.9,17.8,30.15,SW,215,3.6,5.6,74,0.00,,---,0.00,VWS V14.01,2013-01-05 03:37:00,
2013-01-04 22:42:00,24.7,17.6,30.15,SW,215,5.6,6.3,74,0.00,,---,0.00,VWS V14.01,2013-01-05 03:42:00,
2013-01-04 22:47:00,24.7,17.6,30.15,WSW,238,6.0,8.3,74,0.00,,---,0.00,VWS V14.01,2013-01-05 03:47:00,
2013-01-04 22:53:00,24.6,17.5,30.15,SW,215,4.6,5.3,74,0.00,,---,0.00,VWS V14.01,2013-01-05 03:53:00,
2013-01-04 22:58:00,24.6,17.5,30.15,SW,215,4.3,6.3,74,0.00,,---,0.00,VWS V14.01,2013-01-05 03:58:00,
2013-01-04 23:03:00,24.6,17.5,30.15,SW,215,6.0,6.0,74,0.00,,---,0.00,VWS V14.01,2013-01-05 04:03:00,
2013-01-04 23:08:00,24.4,17.3,30.15,WSW,238,6.0,6.0,74,0.00,,---,0.00,VWS V14.01,2013-01-05 04:08:00,
2013-01-04 23:13:00,24.4,17.3,30.15,WSW,238,3.6,3.6,74,0.00,,---,0.00,VWS V14.01,2013-01-05 04:13:00,
2013-01-04 23:18:00,24.2,17.4,30.15,SW,215,4.6,4.6,75,0.00,,---,0.00,VWS V14.01,2013-01-05 04:18:00,
2013-01-04 23:23:00,24.2,17.4,30.15,SW,215,5.6,6.3,75,0.00,,---,0.00,VWS V14.01,2013-01-05 04:23:00,
2013-01-04 23:28:00,24.0,17.3,30.15,SW,215,5.0,6.0,75,0.00,,---,0.00,VWS V14.01,2013-01-05 04:28:00,
2013-01-04 23:33:00,23.8,17.1,30.15,SW,215,5.6,5.6,75,0.00,,---,0.00,VWS V14.01,2013-01-05 04:33:00,
2013-01-04 23:38:00,23.8,17.1,30.15,SW,215,8.3,8.3,75,0.00,,---,0.00,VWS V14.01,2013-01-05 04:38:00,
2013-01-04 23:43:00,23.7,17.2,30.15,WSW,238,4.3,5.3,76,0.00,,---,0.00,VWS V14.01,2013-01-05 04:43:00,
2013-01-04 23:48:00,23.7,17.2,30.15,SW,215,4.0,4.0,76,0.00,,---,0.00,VWS V14.01,2013-01-05 04:48:00,
2013-01-04 23:53:00,23.5,17.0,30.15,SW,215,2.0,6.3,76,0.00,,---,0.00,VWS V14.01,2013-01-05 04:53:00,
2013-01-04 23:58:00,23.3,16.9,30.15,WSW,238,5.6,5.6,76,0.00,,---,0.00,VWS V14.01,2013-01-05 04:58:00,